createdAt,value
2023-05-03T00:01:14.101Z,75.93
2023-05-03T00:03:40.413Z,77.14
2023-05-03T00:06:14.179Z,78.39
2023-05-03T00:08:41.325Z,77.74
2023-05-03T00:11:08.487Z,78.46
2023-05-03T00:13:35.154Z,79.50
2023-05-03T00:16:01.902Z,79.43
2023-05-03T00:18:29.198Z,79.74
2023-05-03T00:20:55.605Z,78.10
2023-05-03T00:23:21.944Z,80.38
2023-05-03T00:25:53.174Z,78.77
2023-05-03T00:28:19.477Z,79.51
2023-05-03T00:30:45.942Z,81.15
2023-05-03T00:33:12.429Z,78.78
2023-05-03T00:35:38.814Z,78.97
2023-05-03T00:38:05.129Z,78.23
2023-05-03T00:40:31.782Z,80.48
2023-05-03T00:42:58.120Z,81.22
2023-05-03T00:45:24.542Z,80.88
2023-05-03T00:47:51.067Z,80.01
2023-05-03T00:50:17.565Z,82.57
2023-05-03T00:52:44.130Z,81.98
2023-05-03T00:55:11.446Z,80.79
2023-05-03T00:57:37.763Z,82.08
2023-05-03T01:00:04.825Z,83.69
2023-05-03T01:02:31.497Z,82.95
2023-05-03T01:04:57.898Z,82.39
2023-05-03T01:07:48.944Z,82.71
2023-05-03T01:10:26.487Z,81.76
2023-05-03T01:13:07.588Z,81.91
2023-05-03T01:15:52.799Z,81.34
2023-05-03T01:18:23.888Z,82.96
2023-05-03T01:20:51.384Z,81.61
2023-05-03T01:23:32.974Z,82.19
2023-05-03T01:26:00.002Z,83.19
2023-05-03T01:28:26.347Z,83.63
2023-05-03T01:30:54.817Z,84.08
2023-05-03T01:33:52.205Z,82.68
2023-05-03T01:36:32.443Z,81.90
2023-05-03T01:39:06.580Z,82.90
2023-05-03T01:41:35.132Z,82.41
2023-05-03T01:44:03.394Z,80.13
2023-05-03T01:46:29.885Z,80.98
2023-05-03T01:48:56.270Z,80.04
2023-05-03T01:51:22.600Z,79.78
2023-05-03T01:53:49.447Z,80.87
2023-05-03T01:56:15.801Z,81.38
2023-05-03T01:58:42.145Z,80.51
2023-05-03T02:01:09.596Z,82.96
2023-05-03T02:03:35.949Z,80.86
2023-05-03T02:06:02.384Z,81.81
2023-05-03T02:08:28.727Z,81.34
2023-05-03T02:10:55.046Z,80.94
2023-05-03T02:13:21.336Z,81.30
2023-05-03T02:15:48.128Z,82.49
2023-05-03T02:18:16.337Z,82.34
2023-05-03T02:20:46.522Z,86.02
2023-05-03T02:23:13.144Z,84.29
2023-05-03T02:25:40.510Z,85.35
2023-05-03T02:28:06.880Z,86.08
2023-05-03T02:30:34.921Z,84.34
2023-05-03T02:33:02.205Z,84.57
2023-05-03T02:35:29.339Z,83.72
2023-05-03T02:37:55.977Z,82.97
2023-05-03T02:40:22.445Z,84.65
2023-05-03T02:42:48.773Z,85.33
2023-05-03T02:45:22.591Z,83.04
2023-05-03T02:47:48.988Z,81.84
2023-05-03T02:50:15.571Z,82.09
2023-05-03T02:52:41.991Z,81.25
2023-05-03T02:55:08.841Z,82.58
2023-05-03T02:57:36.142Z,83.72
2023-05-03T03:00:05.864Z,83.53
2023-05-03T03:02:33.047Z,83.88
2023-05-03T03:04:59.463Z,84.55
2023-05-03T03:07:27.857Z,81.85
2023-05-03T03:09:56.651Z,82.40
2023-05-03T03:12:23.073Z,82.81
2023-05-03T03:14:49.462Z,85.06
2023-05-03T03:17:15.818Z,84.28
2023-05-03T03:19:42.229Z,86.08
2023-05-03T03:22:08.690Z,84.31
2023-05-03T03:24:36.670Z,85.13
2023-05-03T03:27:03.849Z,86.40
2023-05-03T03:29:32.237Z,84.36
2023-05-03T03:32:00.420Z,85.00
2023-05-03T03:34:26.815Z,83.83
2023-05-03T03:36:53.295Z,82.54
2023-05-03T03:39:20.720Z,81.73
2023-05-03T03:41:47.979Z,83.47
2023-05-03T03:44:14.432Z,81.96
2023-05-03T03:46:40.880Z,85.19
2023-05-03T03:49:08.047Z,87.36
2023-05-03T03:51:35.675Z,88.02
2023-05-03T03:54:02.260Z,87.54
2023-05-03T03:56:33.879Z,85.94
2023-05-03T03:59:00.306Z,84.80
2023-05-03T04:01:26.768Z,84.67
2023-05-03T04:03:53.395Z,84.50
2023-05-03T04:06:19.818Z,85.29
2023-05-03T04:08:46.991Z,86.67
2023-05-03T04:11:14.661Z,87.04
2023-05-03T04:13:49.552Z,88.88
2023-05-03T04:16:16.816Z,89.36
2023-05-03T04:18:43.817Z,87.77
2023-05-03T04:21:10.181Z,85.43
2023-05-03T04:23:36.835Z,87.15
2023-05-03T04:26:05.473Z,86.71
2023-05-03T04:28:33.898Z,86.98
2023-05-03T04:31:00.570Z,87.58
2023-05-03T04:33:29.865Z,87.37
2023-05-03T04:36:01.076Z,86.53
2023-05-03T04:38:28.062Z,85.08
2023-05-03T04:40:57.054Z,87.43
2023-05-03T04:43:24.102Z,88.58
2023-05-03T04:45:53.046Z,90.78
2023-05-03T04:48:22.677Z,90.80
2023-05-03T04:50:49.565Z,88.78
2023-05-03T04:53:18.474Z,90.02
2023-05-03T04:55:50.993Z,88.85
2023-05-03T04:58:17.447Z,87.02
2023-05-03T05:00:45.852Z,87.33
2023-05-03T05:03:18.306Z,86.88
2023-05-03T05:05:44.680Z,87.88
2023-05-03T05:08:11.872Z,89.21
2023-05-03T05:10:43.569Z,89.33
2023-05-03T05:13:14.338Z,87.55
2023-05-03T05:15:41.352Z,87.59
2023-05-03T05:18:10.320Z,88.74
2023-05-03T05:20:38.135Z,89.88
2023-05-03T05:23:05.185Z,90.32
2023-05-03T05:25:31.582Z,90.29
2023-05-03T05:28:00.329Z,88.91
2023-05-03T05:30:28.395Z,90.49
2023-05-03T05:32:54.843Z,91.59
2023-05-03T05:35:21.220Z,90.77
2023-05-03T05:37:47.765Z,91.31
2023-05-03T05:40:15.339Z,89.54
2023-05-03T05:42:48.436Z,90.86
2023-05-03T05:45:15.115Z,90.14
2023-05-03T05:47:42.752Z,91.59
2023-05-03T05:50:17.542Z,90.60
2023-05-03T05:52:50.760Z,90.06
2023-05-03T05:55:17.238Z,89.35
2023-05-03T05:57:45.028Z,90.43
2023-05-03T06:00:15.342Z,90.65
2023-05-03T06:02:47.012Z,91.91
2023-05-03T06:05:17.701Z,92.18
2023-05-03T06:07:44.117Z,91.80
2023-05-03T06:10:10.800Z,89.74
2023-05-03T06:12:39.209Z,89.35
2023-05-03T06:15:11.012Z,86.93
2023-05-03T06:17:37.666Z,85.24
2023-05-03T06:20:04.801Z,83.64
2023-05-03T06:22:31.411Z,82.63
2023-05-03T06:24:58.324Z,83.68
2023-05-03T06:27:25.562Z,83.31
2023-05-03T06:29:52.838Z,82.72
2023-05-03T06:32:19.443Z,80.75
2023-05-03T06:34:46.062Z,79.81
2023-05-03T06:37:12.665Z,79.09
2023-05-03T06:39:38.985Z,80.23
2023-05-03T06:42:05.485Z,79.65
2023-05-03T06:44:36.720Z,79.88
2023-05-03T06:47:03.120Z,80.34
2023-05-03T06:49:29.528Z,79.29
2023-05-03T06:51:55.833Z,79.76
2023-05-03T06:54:22.161Z,79.21
2023-05-03T06:56:48.462Z,79.44
2023-05-03T06:59:14.767Z,78.54
2023-05-03T07:01:41.138Z,78.56
2023-05-03T07:04:07.773Z,77.88
2023-05-03T07:06:44.335Z,78.63
2023-05-03T07:09:14.962Z,77.97
2023-05-03T07:11:49.179Z,75.71
2023-05-03T07:14:16.388Z,76.58
2023-05-03T07:16:42.923Z,76.28
2023-05-03T07:19:09.340Z,73.63
2023-05-03T07:21:35.658Z,74.03
2023-05-03T07:24:01.985Z,72.95
2023-05-03T07:26:28.269Z,73.00
2023-05-03T07:28:54.558Z,72.15
2023-05-03T07:31:22.985Z,73.73
2023-05-03T07:33:49.421Z,73.14
2023-05-03T07:36:15.754Z,72.26
2023-05-03T07:38:42.078Z,70.40
2023-05-03T07:41:08.462Z,69.00
2023-05-03T07:43:34.752Z,69.19
2023-05-03T07:46:01.097Z,68.84
2023-05-03T07:48:27.429Z,68.21
2023-05-03T07:50:53.826Z,68.55
2023-05-03T07:53:20.305Z,66.32
2023-05-03T07:55:46.688Z,66.55
2023-05-03T07:58:13.265Z,66.05
2023-05-03T08:00:39.592Z,64.74
2023-05-03T08:03:06.692Z,65.08
2023-05-03T08:05:36.406Z,64.04
2023-05-03T08:08:03.914Z,65.80
2023-05-03T08:10:30.301Z,65.33
2023-05-03T08:12:56.594Z,63.39
2023-05-03T08:15:22.923Z,63.74
2023-05-03T08:17:49.418Z,62.97
2023-05-03T08:20:16.603Z,63.49
2023-05-03T08:22:45.075Z,61.15
2023-05-03T08:25:12.289Z,59.82
2023-05-03T08:27:39.929Z,59.98
2023-05-03T08:30:07.633Z,59.95
2023-05-03T08:32:34.510Z,58.67
2023-05-03T08:35:01.209Z,60.89
2023-05-03T08:37:27.508Z,60.11
2023-05-03T08:39:53.804Z,59.02
2023-05-03T08:42:20.163Z,56.96
2023-05-03T08:44:48.531Z,57.39
2023-05-03T08:47:16.920Z,58.45
2023-05-03T08:49:44.198Z,58.79
2023-05-03T08:52:11.997Z,56.80
2023-05-03T08:54:38.840Z,56.19
2023-05-03T08:57:11.236Z,54.87
2023-05-03T08:59:51.260Z,55.75
2023-05-03T09:02:17.893Z,56.38
2023-05-03T09:04:45.021Z,54.24
2023-05-03T09:07:12.862Z,55.08
2023-05-03T09:09:39.264Z,54.15
2023-05-03T09:12:05.932Z,55.43
2023-05-03T09:14:42.291Z,53.78
2023-05-03T09:17:21.417Z,52.41
2023-05-03T09:19:55.449Z,52.05
2023-05-03T09:22:32.936Z,52.96
2023-05-03T09:25:01.734Z,53.38
2023-05-03T09:27:28.438Z,52.81
2023-05-03T09:29:55.046Z,53.07
2023-05-03T09:32:22.795Z,52.43
2023-05-03T09:34:49.217Z,52.73
2023-05-03T09:37:15.634Z,51.28
2023-05-03T09:39:45.814Z,52.81
2023-05-03T09:42:13.202Z,50.45
2023-05-03T09:44:51.278Z,49.90
2023-05-03T09:47:18.622Z,50.66
2023-05-03T09:49:45.372Z,52.09
2023-05-03T09:52:12.160Z,51.74
2023-05-03T09:54:39.425Z,50.42
2023-05-03T09:57:07.913Z,49.91
2023-05-03T09:59:36.009Z,51.35
2023-05-03T10:02:04.624Z,49.40
2023-05-03T10:04:44.296Z,49.17
2023-05-03T10:07:17.156Z,48.05
2023-05-03T10:09:45.437Z,48.45
2023-05-03T10:12:13.377Z,48.08
2023-05-03T10:14:41.953Z,48.11
2023-05-03T10:17:14.386Z,47.88
2023-05-03T10:19:57.554Z,47.22
2023-05-03T10:22:23.865Z,46.54
2023-05-03T10:25:02.573Z,46.56
2023-05-03T10:27:48.400Z,46.80
2023-05-03T10:30:37.161Z,45.60
2023-05-03T10:33:09.725Z,46.59
2023-05-03T10:35:39.320Z,45.58
2023-05-03T10:38:20.541Z,45.49
2023-05-03T10:40:46.914Z,45.19
2023-05-03T10:43:28.551Z,44.24
2023-05-03T10:46:05.925Z,44.11
2023-05-03T10:48:33.636Z,44.08
2023-05-03T10:51:33.487Z,45.42
2023-05-03T10:53:59.878Z,44.55
2023-05-03T10:56:26.331Z,44.28
2023-05-03T10:58:56.491Z,43.56
2023-05-03T11:01:24.781Z,43.64
2023-05-03T11:04:05.375Z,44.66
2023-05-03T11:06:36.952Z,42.63
2023-05-03T11:09:06.379Z,43.99
2023-05-03T11:11:33.938Z,44.98
2023-05-03T11:14:00.647Z,44.10
2023-05-03T11:16:27.293Z,42.60
2023-05-03T11:18:54.026Z,41.61
2023-05-03T11:21:21.059Z,42.42
2023-05-03T11:23:47.425Z,42.72
2023-05-03T11:26:13.981Z,41.80
2023-05-03T11:28:44.285Z,42.78
2023-05-03T11:31:12.335Z,42.09
2023-05-03T11:33:39.724Z,41.59
2023-05-03T11:36:09.444Z,41.71
2023-05-03T11:38:38.637Z,42.35
2023-05-03T11:41:19.315Z,40.87
2023-05-03T11:43:52.796Z,39.95
2023-05-03T11:46:27.677Z,39.08
2023-05-03T11:48:54.282Z,41.20
2023-05-03T11:51:25.352Z,41.64
2023-05-03T11:53:51.922Z,38.26
2023-05-03T11:56:20.442Z,39.17
2023-05-03T11:59:04.764Z,40.32
2023-05-03T12:01:31.506Z,39.72
2023-05-03T12:04:03.843Z,38.84
2023-05-03T12:06:35.994Z,38.24
2023-05-03T12:09:13.097Z,37.24
2023-05-03T12:11:42.966Z,38.80
2023-05-03T12:14:10.896Z,37.07
2023-05-03T12:16:52.576Z,38.51
2023-05-03T12:19:28.239Z,36.92
2023-05-03T12:22:17.945Z,37.22
2023-05-03T12:24:45.317Z,36.90
2023-05-03T12:27:13.845Z,37.23
2023-05-03T12:29:41.932Z,36.27
2023-05-03T12:32:10.745Z,37.00
2023-05-03T12:34:41.148Z,36.36
2023-05-03T12:37:11.585Z,36.72
2023-05-03T12:39:39.987Z,36.85
2023-05-03T12:42:08.800Z,35.27
2023-05-03T12:44:40.703Z,35.87
2023-05-03T12:47:09.958Z,36.40
2023-05-03T12:49:38.760Z,35.49
2023-05-03T12:52:35.506Z,38.16
2023-05-03T12:55:02.711Z,35.90
2023-05-03T12:57:30.889Z,36.33
2023-05-03T13:00:02.820Z,36.60
2023-05-03T13:05:11.232Z,36.83
2023-05-03T13:07:42.917Z,36.71
2023-05-03T13:12:41.137Z,37.78
2023-05-03T13:15:08.540Z,35.55
2023-05-03T13:17:35.124Z,35.68
2023-05-03T13:20:01.620Z,36.68
2023-05-03T13:22:28.141Z,36.19
2023-05-03T13:24:54.599Z,37.58
2023-05-03T13:27:20.882Z,36.37
2023-05-03T13:29:49.346Z,37.55
2023-05-03T13:32:16.740Z,36.73
2023-05-03T13:34:43.360Z,35.48
2023-05-03T13:37:11.063Z,36.91
2023-05-03T13:39:37.407Z,36.38
2023-05-03T13:42:03.842Z,37.80
2023-05-03T13:44:30.164Z,35.88
2023-05-03T13:46:56.942Z,35.92
2023-05-03T13:49:23.244Z,36.66
2023-05-03T13:51:49.586Z,36.96
2023-05-03T13:54:15.924Z,36.24
2023-05-03T13:56:42.896Z,36.74
2023-05-03T13:59:11.843Z,36.39
2023-05-03T14:01:38.332Z,36.98
2023-05-03T14:04:05.104Z,37.93
2023-05-03T14:06:33.536Z,37.41
2023-05-03T14:09:01.245Z,35.96
2023-05-03T14:11:28.515Z,36.64
2023-05-03T14:13:57.441Z,36.37
2023-05-03T14:16:39.201Z,36.14
2023-05-03T14:19:09.889Z,36.65
2023-05-03T14:21:36.233Z,36.89
2023-05-03T14:24:02.640Z,37.71
2023-05-03T14:26:29.504Z,38.11
2023-05-03T14:28:56.149Z,37.31
2023-05-03T14:31:22.668Z,37.00
2023-05-03T14:33:49.177Z,37.17
2023-05-03T14:36:15.619Z,38.16
2023-05-03T14:38:41.964Z,38.62
2023-05-03T14:41:09.052Z,40.00
2023-05-03T14:43:35.328Z,40.11
2023-05-03T14:46:01.834Z,39.81
2023-05-03T14:48:28.253Z,39.58
2023-05-03T14:50:54.630Z,39.51
2023-05-03T14:53:21.771Z,39.54
2023-05-03T14:55:48.232Z,39.45
2023-05-03T14:58:14.645Z,38.99
2023-05-03T15:00:41.734Z,38.70
2023-05-03T15:03:11.572Z,39.10
2023-05-03T15:05:46.395Z,40.02
2023-05-03T15:08:14.431Z,39.77
2023-05-03T15:10:41.572Z,39.42
2023-05-03T15:13:10.086Z,39.61
2023-05-03T15:15:40.489Z,41.02
2023-05-03T15:18:08.689Z,40.51
2023-05-03T15:20:35.641Z,40.88
2023-05-03T15:23:04.221Z,38.11
2023-05-03T15:25:31.035Z,39.56
2023-05-03T15:27:57.482Z,40.68
2023-05-03T15:30:23.809Z,39.90
2023-05-03T15:32:51.110Z,38.68
2023-05-03T15:35:17.527Z,38.50
2023-05-03T15:37:43.862Z,39.78
2023-05-03T15:40:12.850Z,40.45
2023-05-03T15:42:39.911Z,38.59
2023-05-03T15:45:07.520Z,37.60
2023-05-03T15:47:33.947Z,36.85
2023-05-03T15:50:01.952Z,34.82
2023-05-03T15:52:28.582Z,33.65
2023-05-03T15:54:56.083Z,34.74
2023-05-03T15:57:22.782Z,35.13
2023-05-03T15:59:49.422Z,34.96
2023-05-03T16:02:16.020Z,34.58
2023-05-03T16:04:42.426Z,35.37
2023-05-03T16:07:08.814Z,35.34
2023-05-03T16:09:35.129Z,35.66
2023-05-03T16:12:02.317Z,36.00
2023-05-03T16:14:28.661Z,35.13
2023-05-03T16:16:55.008Z,35.92
2023-05-03T16:19:21.522Z,36.04
2023-05-03T16:21:47.876Z,35.47
2023-05-03T16:24:14.274Z,34.96
2023-05-03T16:26:41.167Z,35.20
2023-05-03T16:29:07.497Z,35.52
2023-05-03T16:31:33.903Z,35.70
2023-05-03T16:34:02.523Z,36.13
2023-05-03T16:36:28.873Z,36.28
2023-05-03T16:38:55.256Z,36.63
2023-05-03T16:41:21.628Z,37.00
2023-05-03T16:43:47.932Z,37.79
2023-05-03T16:46:14.362Z,38.36
2023-05-03T16:48:40.721Z,38.88
2023-05-03T16:51:07.318Z,39.50
2023-05-03T16:53:33.661Z,39.76
2023-05-03T16:56:00.040Z,40.13
2023-05-03T16:58:26.365Z,41.20
2023-05-03T17:00:53.291Z,42.05
2023-05-03T17:03:19.886Z,42.43
2023-05-03T17:05:46.280Z,41.75
2023-05-03T17:08:13.383Z,41.99
2023-05-03T17:10:39.677Z,42.42
2023-05-03T17:13:06.213Z,43.06
2023-05-03T17:15:32.918Z,43.07
2023-05-03T17:18:00.723Z,43.34
2023-05-03T17:20:30.108Z,43.65
2023-05-03T17:22:56.622Z,43.17
2023-05-03T17:25:23.047Z,43.56
2023-05-03T17:27:51.611Z,43.97
2023-05-03T17:30:21.037Z,44.17
2023-05-03T17:32:48.383Z,45.01
2023-05-03T17:35:14.873Z,44.82
2023-05-03T17:37:41.280Z,44.79
2023-05-03T17:40:08.109Z,44.72
2023-05-03T17:42:35.169Z,44.76
2023-05-03T17:45:02.506Z,44.53
2023-05-03T17:47:29.286Z,44.39
2023-05-03T17:49:56.124Z,44.90
2023-05-03T17:52:22.640Z,44.85
2023-05-03T17:54:51.913Z,44.87
2023-05-03T17:57:20.653Z,46.18
2023-05-03T17:59:48.374Z,46.01
2023-05-03T18:02:14.841Z,46.01
2023-05-03T18:04:41.240Z,45.89
2023-05-03T18:07:07.714Z,46.00
2023-05-03T18:09:34.153Z,46.50
2023-05-03T18:12:03.297Z,46.29
2023-05-03T18:14:29.745Z,46.82
2023-05-03T18:16:56.066Z,46.43
2023-05-03T18:19:23.726Z,46.52
2023-05-03T18:21:50.090Z,46.71
2023-05-03T18:24:16.469Z,47.20
2023-05-03T18:26:42.768Z,46.91
2023-05-03T18:29:09.088Z,47.65
2023-05-03T18:31:35.441Z,49.91
2023-05-03T18:34:01.763Z,51.56
2023-05-03T18:36:28.150Z,52.50
2023-05-03T18:38:54.512Z,53.80
2023-05-03T18:41:20.890Z,54.73
2023-05-03T18:43:47.781Z,54.91
2023-05-03T18:46:18.726Z,55.49
2023-05-03T18:48:45.849Z,55.09
2023-05-03T18:51:12.258Z,55.51
2023-05-03T18:53:38.604Z,55.87
2023-05-03T18:56:05.158Z,55.95
2023-05-03T18:58:32.023Z,56.33
2023-05-03T19:00:59.974Z,56.26
2023-05-03T19:03:30.317Z,56.60
2023-05-03T19:06:01.000Z,56.80
2023-05-03T19:08:28.065Z,57.14
2023-05-03T19:10:54.382Z,57.77
2023-05-03T19:13:20.785Z,57.38
2023-05-03T19:15:47.234Z,57.53
2023-05-03T19:18:15.319Z,57.49
2023-05-03T19:20:43.156Z,56.99
2023-05-03T19:23:09.449Z,58.12
2023-05-03T19:25:35.897Z,59.12
2023-05-03T19:28:04.201Z,58.49
2023-05-03T19:30:30.542Z,58.44
2023-05-03T19:32:56.905Z,59.27
2023-05-03T19:35:23.225Z,58.38
2023-05-03T19:37:49.541Z,57.86
2023-05-03T19:40:15.922Z,59.18
2023-05-03T19:42:42.256Z,60.02
2023-05-03T19:45:09.787Z,60.32
2023-05-03T19:47:36.251Z,60.31
2023-05-03T19:50:02.850Z,60.88
2023-05-03T19:52:29.422Z,59.47
2023-05-03T19:54:57.153Z,60.04
2023-05-03T19:57:23.645Z,60.70
2023-05-03T19:59:50.738Z,62.44
2023-05-03T20:02:18.368Z,63.42
2023-05-03T20:04:44.741Z,63.02
2023-05-03T20:07:11.187Z,62.04
2023-05-03T20:09:37.489Z,61.87
2023-05-03T20:12:04.219Z,63.49
2023-05-03T20:14:32.517Z,63.39
2023-05-03T20:16:58.922Z,62.40
2023-05-03T20:19:25.803Z,63.28
2023-05-03T20:21:52.543Z,62.87
2023-05-03T20:24:20.566Z,61.86
2023-05-03T20:26:46.912Z,63.22
2023-05-03T20:29:13.344Z,64.09
2023-05-03T20:31:39.747Z,63.57
2023-05-03T20:34:06.205Z,62.29
2023-05-03T20:36:32.768Z,63.79
2023-05-03T20:38:59.291Z,65.82
2023-05-03T20:41:25.960Z,65.17
2023-05-03T20:43:54.698Z,64.15
2023-05-03T20:46:21.209Z,66.02
2023-05-03T20:48:47.598Z,66.17
2023-05-03T20:51:14.693Z,64.55
2023-05-03T20:53:41.288Z,64.71
2023-05-03T20:56:08.050Z,65.12
2023-05-03T20:58:34.636Z,65.18
2023-05-03T21:01:04.031Z,65.36
2023-05-03T21:03:30.858Z,66.49
2023-05-03T21:05:57.636Z,65.46
2023-05-03T21:08:24.418Z,65.04
2023-05-03T21:10:50.828Z,65.89
2023-05-03T21:13:17.343Z,65.90
2023-05-03T21:15:43.817Z,67.33
2023-05-03T21:18:11.215Z,66.70
2023-05-03T21:20:38.213Z,67.01
2023-05-03T21:23:05.084Z,67.31
2023-05-03T21:25:31.387Z,69.52
2023-05-03T21:27:57.687Z,68.42
2023-05-03T21:30:24.024Z,69.25
2023-05-03T21:32:50.704Z,67.35
2023-05-03T21:35:17.829Z,67.59
2023-05-03T21:37:45.979Z,67.36
2023-05-03T21:40:13.643Z,67.36
2023-05-03T21:42:39.987Z,68.47
2023-05-03T21:45:06.893Z,69.71
2023-05-03T21:47:33.339Z,70.58
2023-05-03T21:50:00.522Z,70.24
2023-05-03T21:52:27.062Z,68.24
2023-05-03T21:54:54.125Z,68.43
2023-05-03T21:57:20.422Z,69.00
2023-05-03T21:59:47.272Z,68.11
2023-05-03T22:02:13.800Z,69.69
2023-05-03T22:04:40.219Z,69.06
2023-05-03T22:07:06.627Z,69.24
2023-05-03T22:09:32.918Z,68.51
2023-05-03T22:12:03.857Z,68.62
2023-05-03T22:14:35.005Z,69.37
2023-05-03T22:17:01.426Z,68.49
2023-05-03T22:19:28.292Z,67.89
2023-05-03T22:21:54.725Z,69.88
2023-05-03T22:24:21.019Z,69.20
2023-05-03T22:26:47.486Z,70.79
2023-05-03T22:29:13.965Z,70.10
2023-05-03T22:31:40.474Z,68.87
2023-05-03T22:34:06.811Z,68.38
2023-05-03T22:36:33.095Z,68.77
2023-05-03T22:39:05.051Z,71.31
2023-05-03T22:41:33.958Z,69.96
2023-05-03T22:44:00.538Z,71.74
2023-05-03T22:46:26.991Z,72.01
2023-05-03T22:48:53.384Z,69.98
2023-05-03T22:51:19.845Z,71.68
2023-05-03T22:53:46.174Z,70.48
2023-05-03T22:56:13.260Z,71.12
2023-05-03T22:58:39.638Z,73.50
2023-05-03T23:01:13.438Z,71.46
2023-05-03T23:03:39.998Z,72.73
2023-05-03T23:06:07.142Z,72.46
2023-05-03T23:08:33.421Z,70.89
2023-05-03T23:10:59.743Z,73.00
2023-05-03T23:13:27.201Z,73.09
2023-05-03T23:15:56.792Z,72.40
2023-05-03T23:18:23.258Z,71.02
2023-05-03T23:20:49.519Z,71.36
2023-05-03T23:23:16.171Z,70.62
2023-05-03T23:25:42.805Z,71.28
2023-05-03T23:28:09.342Z,73.06
2023-05-03T23:30:36.220Z,71.79
2023-05-03T23:33:03.022Z,74.25
2023-05-03T23:35:29.974Z,74.01
2023-05-03T23:37:56.261Z,74.48
2023-05-03T23:40:22.706Z,73.47
2023-05-03T23:42:49.617Z,74.25
2023-05-03T23:45:15.980Z,72.98
2023-05-03T23:47:42.315Z,74.24
2023-05-03T23:50:09.109Z,74.72
2023-05-03T23:52:35.700Z,74.49
2023-05-03T23:55:02.291Z,75.31
2023-05-03T23:57:28.663Z,75.65
2023-05-03T23:59:55.047Z,73.13
